Latest METARs, TAFs and NOTAMs for SEGU


---------------------------------------------------------------------------
	(OBSERVATIONS)
SEGU 211700Z 15009KT 9999 FEW026 SCT100 29/20 Q1010 NOSIG RMK
    A2985=
SEGU 211600Z 23007KT 170V270 9999 FEW026 SCT100 28/20 Q1011 NOSIG
    RMK A2987=
SEGU 211500Z 24008KT 9999 SCT030 BKN100 26/20 Q1011 NOSIG RMK
    A2988=
---------------------------------------------------------------------------
	(TERMINAL AREA FORECAST)
SEGU 211620Z 2118/2218 15005KT 9999 FEW020
    FM220000 21012KT CAVOK
    BECMG 2205/2206 BKN020 SCT100
    FM221300 24004KT 9999 FEW020 TX31/2119Z TN22/2210Z=
---------------------------------------------------------------------------
	(NOTAMS)


SEGU A0055/09 APN NORTE CLSD POR INCIDENTE DE ACFT 27 JAN 05:30
    UNTIL 27 JAN 18:00 ESTIMATED

SEGU A0659/17 MOV AREA WIP SUBJ TFC. CTN. 15 AUG 20:43 2017 UNTIL
    17 NOV 23:59 2017. CREATED: 15 AUG 20:58 2017

SEGU A0660/17 WIP IN GREEN AREAS MOV AREA, SUBJ TFC. CTN. 15
    AUG 20:51 2017 UNTIL 17 NOV 23:59 2017. CREATED: 15 AUG 20:59
    2017

SEGU A0853/17 FIRE AND RESCUE VEHICLE T-3000 U/S. 26 SEP 17:21
    2017 UNTIL 31 OCT 23:00 2017. CREATED: 26 SEP 17:23 2017

SEGU A0883/17 TRIGGER NOTAM-AIRAC AIP SUP 07/17 WEF 12 OCT 2017
    NEW CHARTS STAR OACI-RNAV, IAC OACI-RNAV. 12 OCT 00:00 2017
    UNTIL 25 OCT 23:59 2017. CREATED: 02 OCT 12:52 2017

SEGU A0950/17 RWY CLSD DUE TO MAINT. AUTH OPS HEL. NOV 25 AND
    DEC 02 1300-2000, 25 NOV 13:00 2017 UNTIL 02 DEC 20:00 2017.
    CREATED: 11 OCT 14:43 2017

SEGU A1463/06 COMBUSTIBLE JET A-1 RESTRINGIDO 20 POR CIENTO 26
    DEC 20:45 2006 UNTIL 04 JAN 23:00 ESTIMATED

---------------------------------------------------------------------------